Flight Number: EUR1334 Duration: 2:45
Departure: Gatwick Airport (EGKK) at 08:30 Distance: 983 Nm
Arrival: Tallinn Airport (EETN) at 11:15 Equipment: B737

Weather Information
404 Not Found

Not Found

The requested URL /data/observations/metar/decoded/EGKK.TXT was not found on this server.


Sunrise: 04:06 Sunset: 19:47 (UTC)

Tallinn, Estonia (EETN) 59-24N 024-49E 34M May 20, 2018 - 09:50 AM EDT / 2018.05.20 1350 UTC
Wind: from the NE (050 degrees) at 7 MPH (6 KT):0
Visibility: greater than 7 mile(s):0 Temperature: 68 F (20 C) Dew Point: 30 F (-1 C) Relative Humidity: 24% Pressure (altimeter): 30.30 in. Hg (1026 hPa)
ob: EETN 201350Z 05006KT CAVOK 20/M01 Q1026 NOSIG cycle: 14
Sunrise: 01:41 Sunset: 18:53 (UTC)

TAF:2018/05/20 12:27 TAF TAF EETN 201130Z 2012/2112 33010KT CAVOK BECMG 2019/2021 VRB02KT BECMG 2108/2110 29010KT

Previous Pireps for this route
Date Aircraft Flight time Fuel used Landing rate On time
2013-04-26B73702.2412841-643Yes
2013-07-31B73702.3113751-301Yes
2013-08-27B73702.4815910-170No
2014-01-28B73702.3913741-372Yes
2015-01-29B73702.3614517-191Yes
(pireps marked green are flown by you)

Route map